sensor_id;sensor_type;location;lat;lon;timestamp;P1;durP1;ratioP1;P2;durP2;ratioP2
50906;SDS011;36882;27.680;85.304;2022-12-07T00:01:50;73.63;;;49.75;;
50906;SDS011;36882;27.680;85.304;2022-12-07T00:06:51;74.10;;;47.33;;
50906;SDS011;36882;27.680;85.304;2022-12-07T00:09:22;80.57;;;51.15;;
50906;SDS011;36882;27.680;85.304;2022-12-07T00:11:53;70.53;;;47.75;;
50906;SDS011;36882;27.680;85.304;2022-12-07T00:14:23;76.75;;;47.70;;
50906;SDS011;36882;27.680;85.304;2022-12-07T00:16:54;74.68;;;44.78;;
50906;SDS011;36882;27.680;85.304;2022-12-07T00:19:24;63.28;;;33.13;;
50906;SDS011;36882;27.680;85.304;2022-12-07T00:21:55;52.88;;;33.42;;
50906;SDS011;36882;27.680;85.304;2022-12-07T00:24:25;52.28;;;33.72;;
50906;SDS011;36882;27.680;85.304;2022-12-07T00:26:56;52.67;;;33.13;;
50906;SDS011;36882;27.680;85.304;2022-12-07T00:29:26;68.63;;;37.53;;
50906;SDS011;36882;27.680;85.304;2022-12-07T00:31:58;59.00;;;33.05;;
50906;SDS011;36882;27.680;85.304;2022-12-07T00:34:29;53.90;;;31.88;;
50906;SDS011;36882;27.680;85.304;2022-12-07T00:37:00;55.63;;;34.10;;
50906;SDS011;36882;27.680;85.304;2022-12-07T00:39:30;52.45;;;34.00;;
50906;SDS011;36882;27.680;85.304;2022-12-07T00:42:01;60.28;;;36.58;;
50906;SDS011;36882;27.680;85.304;2022-12-07T00:44:32;55.55;;;36.58;;
50906;SDS011;36882;27.680;85.304;2022-12-07T00:47:03;63.20;;;38.38;;
50906;SDS011;36882;27.680;85.304;2022-12-07T00:49:33;60.25;;;34.20;;
50906;SDS011;36882;27.680;85.304;2022-12-07T00:52:04;58.08;;;33.50;;
50906;SDS011;36882;27.680;85.304;2022-12-07T00:54:34;50.72;;;32.75;;
50906;SDS011;36882;27.680;85.304;2022-12-07T00:57:05;63.42;;;37.70;;
50906;SDS011;36882;27.680;85.304;2022-12-07T00:59:36;58.20;;;37.75;;
50906;SDS011;36882;27.680;85.304;2022-12-07T01:02:06;62.90;;;38.47;;
50906;SDS011;36882;27.680;85.304;2022-12-07T01:04:37;58.85;;;35.15;;
50906;SDS011;36882;27.680;85.304;2022-12-07T01:07:07;63.10;;;35.97;;
50906;SDS011;36882;27.680;85.304;2022-12-07T01:09:37;57.60;;;35.58;;
50906;SDS011;36882;27.680;85.304;2022-12-07T01:12:12;62.42;;;37.85;;
50906;SDS011;36882;27.680;85.304;2022-12-07T01:14:43;65.05;;;40.38;;
50906;SDS011;36882;27.680;85.304;2022-12-07T01:17:14;71.25;;;40.05;;
50906;SDS011;36882;27.680;85.304;2022-12-07T01:19:44;55.00;;;36.13;;
50906;SDS011;36882;27.680;85.304;2022-12-07T01:22:15;81.72;;;38.55;;
50906;SDS011;36882;27.680;85.304;2022-12-07T01:24:45;53.08;;;34.60;;
50906;SDS011;36882;27.680;85.304;2022-12-07T01:27:16;62.72;;;38.90;;
50906;SDS011;36882;27.680;85.304;2022-12-07T01:29:46;72.35;;;37.95;;
50906;SDS011;36882;27.680;85.304;2022-12-07T01:32:17;70.78;;;42.03;;
50906;SDS011;36882;27.680;85.304;2022-12-07T01:34:47;83.13;;;41.30;;
50906;SDS011;36882;27.680;85.304;2022-12-07T01:37:18;93.60;;;42.80;;
50906;SDS011;36882;27.680;85.304;2022-12-07T01:39:49;87.90;;;50.80;;
50906;SDS011;36882;27.680;85.304;2022-12-07T01:42:21;84.40;;;48.38;;
50906;SDS011;36882;27.680;85.304;2022-12-07T01:47:55;119.03;;;65.60;;
50906;SDS011;36882;27.680;85.304;2022-12-07T01:50:27;103.40;;;65.88;;
50906;SDS011;36882;27.680;85.304;2022-12-07T01:53:03;115.72;;;64.53;;
50906;SDS011;36882;27.680;85.304;2022-12-07T01:55:37;109.13;;;66.97;;
50906;SDS011;36882;27.680;85.304;2022-12-07T01:58:12;118.00;;;67.30;;
50906;SDS011;36882;27.680;85.304;2022-12-07T02:00:44;142.35;;;72.60;;
50906;SDS011;36882;27.680;85.304;2022-12-07T02:03:16;141.93;;;76.10;;
50906;SDS011;36882;27.680;85.304;2022-12-07T02:05:53;135.55;;;73.97;;
50906;SDS011;36882;27.680;85.304;2022-12-07T02:08:25;129.82;;;69.70;;
50906;SDS011;36882;27.680;85.304;2022-12-07T02:10:56;117.22;;;66.50;;
50906;SDS011;36882;27.680;85.304;2022-12-07T02:13:28;104.15;;;58.80;;
50906;SDS011;36882;27.680;85.304;2022-12-07T02:16:08;104.07;;;61.08;;
50906;SDS011;36882;27.680;85.304;2022-12-07T02:22:30;106.18;;;60.08;;
50906;SDS011;36882;27.680;85.304;2022-12-07T02:25:22;108.47;;;61.22;;
50906;SDS011;36882;27.680;85.304;2022-12-07T02:28:25;109.30;;;61.70;;
50906;SDS011;36882;27.680;85.304;2022-12-07T02:31:12;113.03;;;59.47;;
50906;SDS011;36882;27.680;85.304;2022-12-07T02:33:51;84.90;;;51.17;;
50906;SDS011;36882;27.680;85.304;2022-12-07T02:36:30;74.57;;;45.70;;
50906;SDS011;36882;27.680;85.304;2022-12-07T02:39:09;77.60;;;47.30;;
50906;SDS011;36882;27.680;85.304;2022-12-07T02:41:51;68.72;;;45.90;;
50906;SDS011;36882;27.680;85.304;2022-12-07T02:44:26;79.00;;;49.72;;
50906;SDS011;36882;27.680;85.304;2022-12-07T02:46:59;79.78;;;50.05;;
50906;SDS011;36882;27.680;85.304;2022-12-07T02:49:34;83.57;;;47.83;;
50906;SDS011;36882;27.680;85.304;2022-12-07T02:52:08;96.15;;;54.70;;
50906;SDS011;36882;27.680;85.304;2022-12-07T02:54:39;96.65;;;58.42;;
50906;SDS011;36882;27.680;85.304;2022-12-07T02:57:14;88.13;;;56.15;;
50906;SDS011;36882;27.680;85.304;2022-12-07T03:00:11;87.03;;;54.10;;
50906;SDS011;36882;27.680;85.304;2022-12-07T03:08:50;84.07;;;52.22;;
50906;SDS011;36882;27.680;85.304;2022-12-07T03:11:33;111.95;;;67.47;;
50906;SDS011;36882;27.680;85.304;2022-12-07T03:14:17;117.05;;;70.32;;
50906;SDS011;36882;27.680;85.304;2022-12-07T03:16:57;126.25;;;80.18;;
50906;SDS011;36882;27.680;85.304;2022-12-07T03:19:48;108.57;;;74.70;;
50906;SDS011;36882;27.680;85.304;2022-12-07T03:22:21;120.75;;;75.35;;
50906;SDS011;36882;27.680;85.304;2022-12-07T03:24:53;105.85;;;68.35;;
50906;SDS011;36882;27.680;85.304;2022-12-07T03:27:30;105.75;;;65.57;;
50906;SDS011;36882;27.680;85.304;2022-12-07T03:30:06;101.35;;;67.63;;
50906;SDS011;36882;27.680;85.304;2022-12-07T03:32:50;100.32;;;63.28;;
50906;SDS011;36882;27.680;85.304;2022-12-07T03:35:36;95.80;;;57.40;;
50906;SDS011;36882;27.680;85.304;2022-12-07T03:38:15;87.22;;;59.03;;
50906;SDS011;36882;27.680;85.304;2022-12-07T03:43:36;97.50;;;62.40;;
50906;SDS011;36882;27.680;85.304;2022-12-07T03:46:27;84.28;;;57.10;;
50906;SDS011;36882;27.680;85.304;2022-12-07T03:49:28;85.47;;;59.22;;
50906;SDS011;36882;27.680;85.304;2022-12-07T03:55:25;84.78;;;57.10;;
50906;SDS011;36882;27.680;85.304;2022-12-07T03:58:05;89.25;;;61.25;;
50906;SDS011;36882;27.680;85.304;2022-12-07T04:00:38;87.00;;;61.85;;
50906;SDS011;36882;27.680;85.304;2022-12-07T04:03:09;94.47;;;62.60;;
50906;SDS011;36882;27.680;85.304;2022-12-07T04:05:39;96.72;;;59.58;;
50906;SDS011;36882;27.680;85.304;2022-12-07T04:08:11;106.45;;;56.90;;
50906;SDS011;36882;27.680;85.304;2022-12-07T04:10:41;62.42;;;39.53;;
50906;SDS011;36882;27.680;85.304;2022-12-07T04:13:11;79.90;;;51.28;;
50906;SDS011;36882;27.680;85.304;2022-12-07T04:15:40;82.45;;;51.10;;
50906;SDS011;36882;27.680;85.304;2022-12-07T04:18:11;73.50;;;49.97;;
50906;SDS011;36882;27.680;85.304;2022-12-07T04:20:41;77.75;;;52.30;;
50906;SDS011;36882;27.680;85.304;2022-12-07T04:23:11;70.85;;;45.15;;
50906;SDS011;36882;27.680;85.304;2022-12-07T04:25:41;64.68;;;42.67;;
50906;SDS011;36882;27.680;85.304;2022-12-07T04:28:11;64.03;;;46.47;;
50906;SDS011;36882;27.680;85.304;2022-12-07T04:30:41;73.78;;;44.80;;
50906;SDS011;36882;27.680;85.304;2022-12-07T04:33:11;74.68;;;47.42;;
50906;SDS011;36882;27.680;85.304;2022-12-07T04:35:42;70.32;;;43.67;;
50906;SDS011;36882;27.680;85.304;2022-12-07T04:38:12;71.10;;;50.17;;
50906;SDS011;36882;27.680;85.304;2022-12-07T04:40:42;60.35;;;41.55;;
50906;SDS011;36882;27.680;85.304;2022-12-07T04:43:11;66.22;;;47.35;;
50906;SDS011;36882;27.680;85.304;2022-12-07T04:45:45;88.25;;;52.65;;
50906;SDS011;36882;27.680;85.304;2022-12-07T04:48:16;87.88;;;55.72;;
50906;SDS011;36882;27.680;85.304;2022-12-07T04:50:47;81.30;;;58.25;;
50906;SDS011;36882;27.680;85.304;2022-12-07T04:53:19;86.10;;;54.60;;
50906;SDS011;36882;27.680;85.304;2022-12-07T04:55:49;83.25;;;53.13;;
50906;SDS011;36882;27.680;85.304;2022-12-07T04:58:19;76.20;;;53.20;;
50906;SDS011;36882;27.680;85.304;2022-12-07T05:00:48;73.75;;;51.95;;
50906;SDS011;36882;27.680;85.304;2022-12-07T05:03:22;72.22;;;49.72;;
50906;SDS011;36882;27.680;85.304;2022-12-07T05:05:52;84.18;;;54.03;;
50906;SDS011;36882;27.680;85.304;2022-12-07T05:08:22;82.93;;;56.90;;
50906;SDS011;36882;27.680;85.304;2022-12-07T05:10:52;84.05;;;54.83;;
50906;SDS011;36882;27.680;85.304;2022-12-07T05:13:22;75.88;;;52.55;;
50906;SDS011;36882;27.680;85.304;2022-12-07T05:18:23;75.35;;;50.25;;
50906;SDS011;36882;27.680;85.304;2022-12-07T05:20:54;72.45;;;50.22;;
50906;SDS011;36882;27.680;85.304;2022-12-07T05:23:23;77.88;;;49.75;;
50906;SDS011;36882;27.680;85.304;2022-12-07T05:25:53;61.95;;;45.35;;
50906;SDS011;36882;27.680;85.304;2022-12-07T05:28:23;67.95;;;42.20;;
50906;SDS011;36882;27.680;85.304;2022-12-07T05:30:53;64.82;;;44.10;;
50906;SDS011;36882;27.680;85.304;2022-12-07T05:33:25;61.92;;;41.08;;
50906;SDS011;36882;27.680;85.304;2022-12-07T05:35:55;54.47;;;34.65;;
50906;SDS011;36882;27.680;85.304;2022-12-07T05:38:25;50.67;;;36.53;;
50906;SDS011;36882;27.680;85.304;2022-12-07T05:40:55;60.60;;;38.15;;
50906;SDS011;36882;27.680;85.304;2022-12-07T05:43:32;55.70;;;40.10;;
50906;SDS011;36882;27.680;85.304;2022-12-07T05:46:02;70.55;;;41.17;;
50906;SDS011;36882;27.680;85.304;2022-12-07T05:48:32;55.72;;;41.03;;
50906;SDS011;36882;27.680;85.304;2022-12-07T05:51:02;61.80;;;40.85;;
50906;SDS011;36882;27.680;85.304;2022-12-07T05:53:32;66.43;;;41.47;;
50906;SDS011;36882;27.680;85.304;2022-12-07T05:56:02;53.70;;;38.35;;
50906;SDS011;36882;27.680;85.304;2022-12-07T05:58:33;63.63;;;39.97;;
50906;SDS011;36882;27.680;85.304;2022-12-07T06:01:20;65.72;;;40.97;;
50906;SDS011;36882;27.680;85.304;2022-12-07T06:07:31;56.08;;;37.55;;
50906;SDS011;36882;27.680;85.304;2022-12-07T06:13:55;96.93;;;57.97;;
50906;SDS011;36882;27.680;85.304;2022-12-07T06:16:27;61.95;;;40.58;;
50906;SDS011;36882;27.680;85.304;2022-12-07T06:18:58;57.75;;;35.13;;
50906;SDS011;36882;27.680;85.304;2022-12-07T06:21:28;54.22;;;33.67;;
50906;SDS011;36882;27.680;85.304;2022-12-07T06:23:59;62.30;;;36.33;;
50906;SDS011;36882;27.680;85.304;2022-12-07T06:26:30;129.18;;;55.83;;
50906;SDS011;36882;27.680;85.304;2022-12-07T06:29:00;52.65;;;29.17;;
50906;SDS011;36882;27.680;85.304;2022-12-07T06:31:30;32.53;;;20.88;;
50906;SDS011;36882;27.680;85.304;2022-12-07T06:34:03;43.55;;;22.35;;
50906;SDS011;36882;27.680;85.304;2022-12-07T07:02:23;55.25;;;33.92;;
50906;SDS011;36882;27.680;85.304;2022-12-07T07:04:53;46.08;;;31.63;;
50906;SDS011;36882;27.680;85.304;2022-12-07T07:33:12;57.67;;;35.58;;
50906;SDS011;36882;27.680;85.304;2022-12-07T07:49:59;40.30;;;24.48;;
50906;SDS011;36882;27.680;85.304;2022-12-07T07:52:30;32.50;;;21.45;;
50906;SDS011;36882;27.680;85.304;2022-12-07T08:02:24;43.10;;;23.20;;
50906;SDS011;36882;27.680;85.304;2022-12-07T08:04:54;41.80;;;23.50;;
50906;SDS011;36882;27.680;85.304;2022-12-07T09:39:46;32.15;;;17.27;;
50906;SDS011;36882;27.680;85.304;2022-12-07T09:42:23;85.70;;;20.73;;
50906;SDS011;36882;27.680;85.304;2022-12-07T09:44:58;28.92;;;18.08;;
50906;SDS011;36882;27.680;85.304;2022-12-07T09:47:30;31.05;;;14.77;;
50906;SDS011;36882;27.680;85.304;2022-12-07T09:50:04;34.83;;;18.13;;
50906;SDS011;36882;27.680;85.304;2022-12-07T09:52:42;34.45;;;17.52;;
50906;SDS011;36882;27.680;85.304;2022-12-07T09:55:15;39.53;;;19.30;;
50906;SDS011;36882;27.680;85.304;2022-12-07T09:57:57;29.55;;;16.80;;
50906;SDS011;36882;27.680;85.304;2022-12-07T10:00:28;34.92;;;17.70;;
50906;SDS011;36882;27.680;85.304;2022-12-07T10:10:26;40.65;;;19.38;;
50906;SDS011;36882;27.680;85.304;2022-12-07T10:13:06;42.30;;;19.92;;
50906;SDS011;36882;27.680;85.304;2022-12-07T10:15:43;37.38;;;21.75;;
50906;SDS011;36882;27.680;85.304;2022-12-07T10:21:03;33.13;;;18.48;;
50906;SDS011;36882;27.680;85.304;2022-12-07T10:26:40;27.77;;;19.00;;
50906;SDS011;36882;27.680;85.304;2022-12-07T10:29:36;36.33;;;19.95;;
50906;SDS011;36882;27.680;85.304;2022-12-07T10:32:38;34.03;;;19.05;;
50906;SDS011;36882;27.680;85.304;2022-12-07T10:35:49;36.70;;;18.98;;
50906;SDS011;36882;27.680;85.304;2022-12-07T10:42:02;30.95;;;18.70;;
50906;SDS011;36882;27.680;85.304;2022-12-07T10:44:34;33.60;;;18.88;;
50906;SDS011;36882;27.680;85.304;2022-12-07T10:50:17;40.67;;;21.50;;
50906;SDS011;36882;27.680;85.304;2022-12-07T10:53:15;42.08;;;21.50;;
50906;SDS011;36882;27.680;85.304;2022-12-07T10:56:11;42.42;;;20.10;;
50906;SDS011;36882;27.680;85.304;2022-12-07T11:11:43;52.95;;;27.05;;
50906;SDS011;36882;27.680;85.304;2022-12-07T11:14:35;53.53;;;32.88;;
50906;SDS011;36882;27.680;85.304;2022-12-07T11:17:27;64.47;;;37.25;;
50906;SDS011;36882;27.680;85.304;2022-12-07T12:12:48;67.70;;;42.78;;
50906;SDS011;36882;27.680;85.304;2022-12-07T12:15:56;69.18;;;40.83;;
50906;SDS011;36882;27.680;85.304;2022-12-07T12:19:08;91.35;;;58.05;;
50906;SDS011;36882;27.680;85.304;2022-12-07T12:21:53;71.00;;;47.53;;
50906;SDS011;36882;27.680;85.304;2022-12-07T12:24:29;67.13;;;45.08;;
50906;SDS011;36882;27.680;85.304;2022-12-07T12:27:06;69.72;;;45.33;;
50906;SDS011;36882;27.680;85.304;2022-12-07T12:29:44;67.72;;;44.03;;
50906;SDS011;36882;27.680;85.304;2022-12-07T12:32:21;64.45;;;42.60;;
50906;SDS011;36882;27.680;85.304;2022-12-07T12:34:58;66.07;;;42.65;;
50906;SDS011;36882;27.680;85.304;2022-12-07T12:37:39;76.18;;;46.97;;
50906;SDS011;36882;27.680;85.304;2022-12-07T12:40:37;71.10;;;45.88;;
50906;SDS011;36882;27.680;85.304;2022-12-07T12:49:32;62.08;;;40.20;;
50906;SDS011;36882;27.680;85.304;2022-12-07T12:55:12;55.55;;;34.50;;
50906;SDS011;36882;27.680;85.304;2022-12-07T13:03:56;50.88;;;35.65;;
50906;SDS011;36882;27.680;85.304;2022-12-07T13:09:15;59.42;;;38.45;;
50906;SDS011;36882;27.680;85.304;2022-12-07T13:11:55;58.78;;;34.95;;
50906;SDS011;36882;27.680;85.304;2022-12-07T13:23:14;54.30;;;37.20;;
50906;SDS011;36882;27.680;85.304;2022-12-07T13:25:51;58.05;;;35.85;;
50906;SDS011;36882;27.680;85.304;2022-12-07T13:28:32;46.70;;;32.90;;
50906;SDS011;36882;27.680;85.304;2022-12-07T13:31:11;54.22;;;34.92;;
50906;SDS011;36882;27.680;85.304;2022-12-07T13:33:47;59.38;;;36.50;;
50906;SDS011;36882;27.680;85.304;2022-12-07T13:38:51;61.70;;;36.75;;
50906;SDS011;36882;27.680;85.304;2022-12-07T13:41:24;69.22;;;43.03;;
50906;SDS011;36882;27.680;85.304;2022-12-07T13:46:51;80.85;;;47.88;;
50906;SDS011;36882;27.680;85.304;2022-12-07T13:49:48;90.88;;;48.10;;
50906;SDS011;36882;27.680;85.304;2022-12-07T13:52:23;96.20;;;46.90;;
50906;SDS011;36882;27.680;85.304;2022-12-07T13:57:44;87.30;;;46.83;;
50906;SDS011;36882;27.680;85.304;2022-12-07T14:00:21;79.10;;;48.42;;
50906;SDS011;36882;27.680;85.304;2022-12-07T14:02:56;90.32;;;45.88;;
50906;SDS011;36882;27.680;85.304;2022-12-07T14:05:29;73.15;;;43.72;;
50906;SDS011;36882;27.680;85.304;2022-12-07T14:08:03;76.07;;;45.05;;
50906;SDS011;36882;27.680;85.304;2022-12-07T14:10:54;72.53;;;40.72;;
50906;SDS011;36882;27.680;85.304;2022-12-07T14:13:34;68.32;;;44.42;;
50906;SDS011;36882;27.680;85.304;2022-12-07T14:18:58;62.33;;;36.58;;
50906;SDS011;36882;27.680;85.304;2022-12-07T14:21:29;56.22;;;38.33;;
50906;SDS011;36882;27.680;85.304;2022-12-07T14:24:11;61.55;;;37.00;;
50906;SDS011;36882;27.680;85.304;2022-12-07T14:26:46;57.33;;;34.88;;
50906;SDS011;36882;27.680;85.304;2022-12-07T14:32:15;72.25;;;41.97;;
50906;SDS011;36882;27.680;85.304;2022-12-07T14:37:42;64.47;;;41.50;;
50906;SDS011;36882;27.680;85.304;2022-12-07T14:40:16;86.20;;;43.10;;
50906;SDS011;36882;27.680;85.304;2022-12-07T14:42:52;76.63;;;42.20;;
50906;SDS011;36882;27.680;85.304;2022-12-07T14:45:27;84.85;;;46.60;;
50906;SDS011;36882;27.680;85.304;2022-12-07T14:47:58;82.00;;;46.17;;
50906;SDS011;36882;27.680;85.304;2022-12-07T14:50:49;81.35;;;46.90;;
50906;SDS011;36882;27.680;85.304;2022-12-07T14:53:42;87.75;;;45.70;;
50906;SDS011;36882;27.680;85.304;2022-12-07T14:56:23;89.60;;;48.70;;
50906;SDS011;36882;27.680;85.304;2022-12-07T14:58:53;77.05;;;44.50;;
50906;SDS011;36882;27.680;85.304;2022-12-07T15:01:23;84.60;;;47.70;;
50906;SDS011;36882;27.680;85.304;2022-12-07T15:03:53;69.35;;;40.63;;
50906;SDS011;36882;27.680;85.304;2022-12-07T15:06:27;63.40;;;38.10;;
50906;SDS011;36882;27.680;85.304;2022-12-07T15:08:57;66.93;;;37.08;;
50906;SDS011;36882;27.680;85.304;2022-12-07T15:11:27;57.40;;;36.65;;
50906;SDS011;36882;27.680;85.304;2022-12-07T15:13:58;64.10;;;39.45;;
50906;SDS011;36882;27.680;85.304;2022-12-07T15:16:44;57.58;;;37.28;;
50906;SDS011;36882;27.680;85.304;2022-12-07T15:19:35;72.50;;;42.70;;
50906;SDS011;36882;27.680;85.304;2022-12-07T15:24:34;70.50;;;42.53;;
50906;SDS011;36882;27.680;85.304;2022-12-07T15:27:04;71.38;;;41.45;;
50906;SDS011;36882;27.680;85.304;2022-12-07T15:29:35;73.68;;;45.78;;
50906;SDS011;36882;27.680;85.304;2022-12-07T15:32:05;83.65;;;45.63;;
50906;SDS011;36882;27.680;85.304;2022-12-07T15:34:35;79.60;;;48.15;;
50906;SDS011;36882;27.680;85.304;2022-12-07T15:37:10;77.50;;;44.28;;
50906;SDS011;36882;27.680;85.304;2022-12-07T15:39:41;70.22;;;42.92;;
50906;SDS011;36882;27.680;85.304;2022-12-07T15:42:11;76.93;;;43.22;;
50906;SDS011;36882;27.680;85.304;2022-12-07T15:44:41;59.03;;;34.55;;
50906;SDS011;36882;27.680;85.304;2022-12-07T15:47:27;57.40;;;36.35;;
50906;SDS011;36882;27.680;85.304;2022-12-07T15:49:57;67.82;;;36.78;;
50906;SDS011;36882;27.680;85.304;2022-12-07T15:52:27;53.55;;;36.00;;
50906;SDS011;36882;27.680;85.304;2022-12-07T15:54:57;62.78;;;34.53;;
50906;SDS011;36882;27.680;85.304;2022-12-07T15:57:31;64.80;;;36.75;;
50906;SDS011;36882;27.680;85.304;2022-12-07T16:00:05;56.33;;;33.65;;
50906;SDS011;36882;27.680;85.304;2022-12-07T16:02:37;62.72;;;33.60;;
50906;SDS011;36882;27.680;85.304;2022-12-07T16:05:07;51.80;;;31.20;;
50906;SDS011;36882;27.680;85.304;2022-12-07T16:07:38;64.75;;;36.05;;
50906;SDS011;36882;27.680;85.304;2022-12-07T16:10:08;56.40;;;34.30;;
50906;SDS011;36882;27.680;85.304;2022-12-07T16:12:38;62.45;;;35.97;;
50906;SDS011;36882;27.680;85.304;2022-12-07T16:15:08;72.65;;;37.95;;
50906;SDS011;36882;27.680;85.304;2022-12-07T16:17:39;57.53;;;37.88;;
50906;SDS011;36882;27.680;85.304;2022-12-07T16:20:13;63.17;;;36.25;;
50906;SDS011;36882;27.680;85.304;2022-12-07T16:22:43;78.35;;;37.95;;
50906;SDS011;36882;27.680;85.304;2022-12-07T16:25:13;64.03;;;39.40;;
50906;SDS011;36882;27.680;85.304;2022-12-07T16:27:43;66.88;;;39.22;;
50906;SDS011;36882;27.680;85.304;2022-12-07T16:30:17;64.22;;;42.70;;
50906;SDS011;36882;27.680;85.304;2022-12-07T16:32:47;95.07;;;45.15;;
50906;SDS011;36882;27.680;85.304;2022-12-07T16:35:17;91.43;;;54.40;;
50906;SDS011;36882;27.680;85.304;2022-12-07T16:37:47;92.65;;;56.22;;
50906;SDS011;36882;27.680;85.304;2022-12-07T16:40:17;116.13;;;69.35;;
50906;SDS011;36882;27.680;85.304;2022-12-07T16:42:47;118.97;;;73.28;;
50906;SDS011;36882;27.680;85.304;2022-12-07T16:45:17;145.85;;;83.57;;
50906;SDS011;36882;27.680;85.304;2022-12-07T16:47:47;147.50;;;89.05;;
50906;SDS011;36882;27.680;85.304;2022-12-07T16:50:18;144.30;;;90.57;;
50906;SDS011;36882;27.680;85.304;2022-12-07T16:52:51;151.85;;;96.65;;
50906;SDS011;36882;27.680;85.304;2022-12-07T16:55:22;144.18;;;93.82;;
50906;SDS011;36882;27.680;85.304;2022-12-07T16:57:52;138.48;;;95.82;;
50906;SDS011;36882;27.680;85.304;2022-12-07T17:00:23;136.32;;;87.72;;
50906;SDS011;36882;27.680;85.304;2022-12-07T17:02:54;139.63;;;91.80;;
50906;SDS011;36882;27.680;85.304;2022-12-07T17:05:24;117.05;;;83.57;;
50906;SDS011;36882;27.680;85.304;2022-12-07T17:07:57;120.15;;;81.57;;
50906;SDS011;36882;27.680;85.304;2022-12-07T17:10:28;130.10;;;76.30;;
50906;SDS011;36882;27.680;85.304;2022-12-07T17:12:58;106.63;;;72.03;;
50906;SDS011;36882;27.680;85.304;2022-12-07T17:15:28;108.93;;;77.53;;
50906;SDS011;36882;27.680;85.304;2022-12-07T17:17:58;122.75;;;83.03;;
50906;SDS011;36882;27.680;85.304;2022-12-07T17:20:28;158.27;;;100.47;;
50906;SDS011;36882;27.680;85.304;2022-12-07T17:22:58;172.15;;;109.53;;
50906;SDS011;36882;27.680;85.304;2022-12-07T17:25:28;182.43;;;122.53;;
50906;SDS011;36882;27.680;85.304;2022-12-07T17:27:58;184.80;;;122.72;;
50906;SDS011;36882;27.680;85.304;2022-12-07T17:30:28;184.65;;;122.20;;
50906;SDS011;36882;27.680;85.304;2022-12-07T17:32:58;195.32;;;122.88;;
50906;SDS011;36882;27.680;85.304;2022-12-07T17:35:28;165.77;;;105.32;;
50906;SDS011;36882;27.680;85.304;2022-12-07T17:37:58;146.63;;;91.75;;
50906;SDS011;36882;27.680;85.304;2022-12-07T17:40:28;131.45;;;87.65;;
50906;SDS011;36882;27.680;85.304;2022-12-07T17:42:58;127.68;;;85.05;;
50906;SDS011;36882;27.680;85.304;2022-12-07T17:45:28;125.60;;;85.93;;
50906;SDS011;36882;27.680;85.304;2022-12-07T17:47:58;108.30;;;74.28;;
50906;SDS011;36882;27.680;85.304;2022-12-07T17:50:28;100.43;;;68.47;;
50906;SDS011;36882;27.680;85.304;2022-12-07T17:53:13;95.20;;;59.80;;
50906;SDS011;36882;27.680;85.304;2022-12-07T17:55:43;97.45;;;62.03;;
50906;SDS011;36882;27.680;85.304;2022-12-07T17:58:33;85.30;;;52.72;;
50906;SDS011;36882;27.680;85.304;2022-12-07T18:01:07;86.55;;;54.22;;
50906;SDS011;36882;27.680;85.304;2022-12-07T18:03:37;79.18;;;48.25;;
50906;SDS011;36882;27.680;85.304;2022-12-07T18:06:07;73.22;;;41.15;;
50906;SDS011;36882;27.680;85.304;2022-12-07T18:08:37;64.10;;;39.50;;
50906;SDS011;36882;27.680;85.304;2022-12-07T18:11:07;64.63;;;40.95;;
50906;SDS011;36882;27.680;85.304;2022-12-07T18:13:37;86.20;;;45.60;;
50906;SDS011;36882;27.680;85.304;2022-12-07T18:16:09;94.97;;;52.35;;
50906;SDS011;36882;27.680;85.304;2022-12-07T18:18:46;93.50;;;56.90;;
50906;SDS011;36882;27.680;85.304;2022-12-07T18:21:22;94.90;;;58.22;;
50906;SDS011;36882;27.680;85.304;2022-12-07T18:23:55;92.18;;;61.72;;
50906;SDS011;36882;27.680;85.304;2022-12-07T18:26:30;99.45;;;62.22;;
50906;SDS011;36882;27.680;85.304;2022-12-07T18:29:05;126.55;;;76.85;;
50906;SDS011;36882;27.680;85.304;2022-12-07T18:31:35;130.50;;;80.43;;
50906;SDS011;36882;27.680;85.304;2022-12-07T18:34:07;124.65;;;78.15;;
50906;SDS011;36882;27.680;85.304;2022-12-07T18:36:40;99.75;;;64.10;;
50906;SDS011;36882;27.680;85.304;2022-12-07T18:39:15;84.57;;;53.03;;
50906;SDS011;36882;27.680;85.304;2022-12-07T18:41:46;84.65;;;50.97;;
50906;SDS011;36882;27.680;85.304;2022-12-07T18:44:17;76.78;;;45.67;;
50906;SDS011;36882;27.680;85.304;2022-12-07T18:46:54;71.28;;;44.45;;
50906;SDS011;36882;27.680;85.304;2022-12-07T18:49:24;71.88;;;42.85;;
50906;SDS011;36882;27.680;85.304;2022-12-07T18:51:54;70.72;;;44.63;;
50906;SDS011;36882;27.680;85.304;2022-12-07T18:54:24;74.45;;;43.33;;
50906;SDS011;36882;27.680;85.304;2022-12-07T18:56:54;79.40;;;46.03;;
50906;SDS011;36882;27.680;85.304;2022-12-07T18:59:24;76.07;;;48.83;;
50906;SDS011;36882;27.680;85.304;2022-12-07T19:02:08;87.78;;;52.17;;
50906;SDS011;36882;27.680;85.304;2022-12-07T19:04:39;91.50;;;52.67;;
50906;SDS011;36882;27.680;85.304;2022-12-07T19:07:09;95.03;;;61.22;;
50906;SDS011;36882;27.680;85.304;2022-12-07T19:09:39;121.50;;;67.57;;
50906;SDS011;36882;27.680;85.304;2022-12-07T19:12:10;130.25;;;81.22;;
50906;SDS011;36882;27.680;85.304;2022-12-07T19:14:40;154.43;;;94.28;;
50906;SDS011;36882;27.680;85.304;2022-12-07T19:17:11;151.15;;;94.05;;
50906;SDS011;36882;27.680;85.304;2022-12-07T19:19:43;175.23;;;110.60;;
50906;SDS011;36882;27.680;85.304;2022-12-07T19:22:15;188.75;;;112.75;;
50906;SDS011;36882;27.680;85.304;2022-12-07T19:24:48;188.23;;;112.43;;
50906;SDS011;36882;27.680;85.304;2022-12-07T19:27:21;198.38;;;126.32;;
50906;SDS011;36882;27.680;85.304;2022-12-07T19:29:52;190.57;;;123.03;;
50906;SDS011;36882;27.680;85.304;2022-12-07T19:32:22;183.23;;;115.60;;
50906;SDS011;36882;27.680;85.304;2022-12-07T19:34:52;177.50;;;108.05;;
50906;SDS011;36882;27.680;85.304;2022-12-07T19:39:52;167.32;;;101.97;;
50906;SDS011;36882;27.680;85.304;2022-12-07T19:42:23;159.75;;;102.93;;
50906;SDS011;36882;27.680;85.304;2022-12-07T19:44:53;169.60;;;104.38;;
50906;SDS011;36882;27.680;85.304;2022-12-07T19:47:23;158.30;;;98.50;;
50906;SDS011;36882;27.680;85.304;2022-12-07T19:49:53;158.07;;;96.25;;
50906;SDS011;36882;27.680;85.304;2022-12-07T19:52:23;147.07;;;93.63;;
50906;SDS011;36882;27.680;85.304;2022-12-07T19:55:00;138.45;;;88.75;;
50906;SDS011;36882;27.680;85.304;2022-12-07T19:57:31;150.82;;;91.78;;
50906;SDS011;36882;27.680;85.304;2022-12-07T20:00:01;158.88;;;90.10;;
50906;SDS011;36882;27.680;85.304;2022-12-07T20:02:33;131.65;;;84.30;;
50906;SDS011;36882;27.680;85.304;2022-12-07T20:05:04;129.20;;;84.00;;
50906;SDS011;36882;27.680;85.304;2022-12-07T20:07:34;119.90;;;72.88;;
50906;SDS011;36882;27.680;85.304;2022-12-07T20:10:06;111.30;;;71.75;;
50906;SDS011;36882;27.680;85.304;2022-12-07T20:12:37;107.28;;;73.20;;
50906;SDS011;36882;27.680;85.304;2022-12-07T20:15:21;106.10;;;69.03;;
50906;SDS011;36882;27.680;85.304;2022-12-07T20:17:51;100.05;;;66.40;;